sensor_id;sensor_type;location;lat;lon;timestamp;pressure;altitude;pressure_sealevel;temperature
19102;BMP280;9683;49.028;12.064;2023-04-29T00:01:23;96889.78;;;14.64
19102;BMP280;9683;49.028;12.064;2023-04-29T00:03:50;96883.59;;;14.64
19102;BMP280;9683;49.028;12.064;2023-04-29T00:06:16;96880.66;;;14.65
19102;BMP280;9683;49.028;12.064;2023-04-29T00:08:43;96883.88;;;14.67
19102;BMP280;9683;49.028;12.064;2023-04-29T00:11:09;96888.19;;;14.74
19102;BMP280;9683;49.028;12.064;2023-04-29T00:13:36;96884.22;;;14.76
19102;BMP280;9683;49.028;12.064;2023-04-29T00:16:06;96877.25;;;14.75
19102;BMP280;9683;49.028;12.064;2023-04-29T00:18:34;96870.25;;;14.74
19102;BMP280;9683;49.028;12.064;2023-04-29T00:21:03;96872.94;;;14.74
19102;BMP280;9683;49.028;12.064;2023-04-29T00:23:31;96868.91;;;14.72
19102;BMP280;9683;49.028;12.064;2023-04-29T00:25:58;96863.81;;;14.70
19102;BMP280;9683;49.028;12.064;2023-04-29T00:28:24;96872.13;;;14.68
19102;BMP280;9683;49.028;12.064;2023-04-29T00:30:51;96856.59;;;14.71
19102;BMP280;9683;49.028;12.064;2023-04-29T00:33:18;96843.41;;;14.59
19102;BMP280;9683;49.028;12.064;2023-04-29T00:35:45;96870.22;;;14.69
19102;BMP280;9683;49.028;12.064;2023-04-29T00:38:12;96861.09;;;14.65
19102;BMP280;9683;49.028;12.064;2023-04-29T00:40:39;96869.13;;;14.65
19102;BMP280;9683;49.028;12.064;2023-04-29T00:43:05;96861.38;;;14.63
19102;BMP280;9683;49.028;12.064;2023-04-29T00:45:32;96861.63;;;14.62
19102;BMP280;9683;49.028;12.064;2023-04-29T00:47:58;96866.16;;;14.61
19102;BMP280;9683;49.028;12.064;2023-04-29T00:50:25;96865.34;;;14.61
19102;BMP280;9683;49.028;12.064;2023-04-29T00:52:53;96857.34;;;14.66
19102;BMP280;9683;49.028;12.064;2023-04-29T00:55:20;96841.28;;;14.66
19102;BMP280;9683;49.028;12.064;2023-04-29T00:57:47;96856.06;;;14.68
19102;BMP280;9683;49.028;12.064;2023-04-29T01:00:14;96853.63;;;14.67
19102;BMP280;9683;49.028;12.064;2023-04-29T01:02:41;96864.59;;;14.65
19102;BMP280;9683;49.028;12.064;2023-04-29T01:05:09;96862.19;;;14.64
19102;BMP280;9683;49.028;12.064;2023-04-29T01:07:43;96868.34;;;14.64
19102;BMP280;9683;49.028;12.064;2023-04-29T01:10:14;96876.63;;;14.63
19102;BMP280;9683;49.028;12.064;2023-04-29T01:12:49;96876.63;;;14.63
19102;BMP280;9683;49.028;12.064;2023-04-29T01:15:21;96863.44;;;14.56
19102;BMP280;9683;49.028;12.064;2023-04-29T01:17:50;96859.75;;;14.62
19102;BMP280;9683;49.028;12.064;2023-04-29T01:20:21;96863.00;;;14.64
19102;BMP280;9683;49.028;12.064;2023-04-29T01:22:48;96853.63;;;14.67
19102;BMP280;9683;49.028;12.064;2023-04-29T01:25:16;96856.88;;;14.74
19102;BMP280;9683;49.028;12.064;2023-04-29T01:27:50;96862.78;;;14.76
19102;BMP280;9683;49.028;12.064;2023-04-29T01:30:25;96863.59;;;14.77
19102;BMP280;9683;49.028;12.064;2023-04-29T01:33:02;96864.13;;;14.79
19102;BMP280;9683;49.028;12.064;2023-04-29T01:35:43;96855.03;;;14.80
19102;BMP280;9683;49.028;12.064;2023-04-29T01:38:19;96849.66;;;14.75
19102;BMP280;9683;49.028;12.064;2023-04-29T01:40:58;96852.09;;;14.81
19102;BMP280;9683;49.028;12.064;2023-04-29T01:43:31;96846.75;;;14.81
19102;BMP280;9683;49.028;12.064;2023-04-29T01:45:59;96849.94;;;14.78
19102;BMP280;9683;49.028;12.064;2023-04-29T01:48:28;96853.94;;;14.76
19102;BMP280;9683;49.028;12.064;2023-04-29T01:50:56;96850.41;;;14.70
19102;BMP280;9683;49.028;12.064;2023-04-29T01:53:22;96844.25;;;14.69
19102;BMP280;9683;49.028;12.064;2023-04-29T01:55:50;96854.16;;;14.69
19102;BMP280;9683;49.028;12.064;2023-04-29T01:58:17;96848.25;;;14.67
19102;BMP280;9683;49.028;12.064;2023-04-29T02:00:43;96844.00;;;14.71
19102;BMP280;9683;49.028;12.064;2023-04-29T02:03:10;96857.41;;;14.71
19102;BMP280;9683;49.028;12.064;2023-04-29T02:05:37;96862.75;;;14.71
19102;BMP280;9683;49.028;12.064;2023-04-29T02:08:04;96854.72;;;14.71
19102;BMP280;9683;49.028;12.064;2023-04-29T02:10:31;96846.94;;;14.69
19102;BMP280;9683;49.028;12.064;2023-04-29T02:13:00;96846.44;;;14.73
19102;BMP280;9683;49.028;12.064;2023-04-29T02:15:27;96851.22;;;14.71
19102;BMP280;9683;49.028;12.064;2023-04-29T02:17:54;96865.66;;;14.64
19102;BMP280;9683;49.028;12.064;2023-04-29T02:20:21;96865.16;;;14.67
19102;BMP280;9683;49.028;12.064;2023-04-29T02:22:47;96869.69;;;14.67
19102;BMP280;9683;49.028;12.064;2023-04-29T02:25:14;96867.25;;;14.65
19102;BMP280;9683;49.028;12.064;2023-04-29T02:27:41;96868.34;;;14.64
19102;BMP280;9683;49.028;12.064;2023-04-29T02:30:10;96872.91;;;14.64
19102;BMP280;9683;49.028;12.064;2023-04-29T02:32:36;96864.06;;;14.63
19102;BMP280;9683;49.028;12.064;2023-04-29T02:35:04;96861.09;;;14.65
19102;BMP280;9683;49.028;12.064;2023-04-29T02:37:31;96860.59;;;14.68
19102;BMP280;9683;49.028;12.064;2023-04-29T02:39:58;96859.03;;;14.72
19102;BMP280;9683;49.028;12.064;2023-04-29T02:42:25;96858.72;;;14.74
19102;BMP280;9683;49.028;12.064;2023-04-29T02:44:51;96849.13;;;14.78
19102;BMP280;9683;49.028;12.064;2023-04-29T02:47:20;96846.75;;;14.81
19102;BMP280;9683;49.028;12.064;2023-04-29T02:49:46;96845.41;;;14.84
19102;BMP280;9683;49.028;12.064;2023-04-29T02:52:13;96849.97;;;14.83
19102;BMP280;9683;49.028;12.064;2023-04-29T02:54:41;96856.91;;;14.79
19102;BMP280;9683;49.028;12.064;2023-04-29T02:57:08;96850.50;;;14.80
19102;BMP280;9683;49.028;12.064;2023-04-29T02:59:35;96839.75;;;14.75
19102;BMP280;9683;49.028;12.064;2023-04-29T03:02:02;96849.69;;;14.80
19102;BMP280;9683;49.028;12.064;2023-04-29T03:04:30;96819.34;;;14.64
19102;BMP280;9683;49.028;12.064;2023-04-29T03:06:57;96834.09;;;14.72
19102;BMP280;9683;49.028;12.064;2023-04-29T03:09:24;96846.94;;;14.69
19102;BMP280;9683;49.028;12.064;2023-04-29T03:11:50;96839.97;;;14.68
19102;BMP280;9683;49.028;12.064;2023-04-29T03:14:17;96845.59;;;14.67
19102;BMP280;9683;49.028;12.064;2023-04-29T03:16:44;96837.47;;;14.57
19102;BMP280;9683;49.028;12.064;2023-04-29T03:19:11;96856.03;;;14.63
19102;BMP280;9683;49.028;12.064;2023-04-29T03:21:39;96851.19;;;14.65
19102;BMP280;9683;49.028;12.064;2023-04-29T03:24:06;96847.41;;;14.61
19102;BMP280;9683;49.028;12.064;2023-04-29T03:26:32;96850.91;;;14.62
19102;BMP280;9683;49.028;12.064;2023-04-29T03:28:59;96853.59;;;14.62
19102;BMP280;9683;49.028;12.064;2023-04-29T03:31:26;96839.91;;;14.58
19102;BMP280;9683;49.028;12.064;2023-04-29T03:33:53;96852.56;;;14.68
19102;BMP280;9683;49.028;12.064;2023-04-29T03:36:19;96838.84;;;14.59
19102;BMP280;9683;49.028;12.064;2023-04-29T03:38:48;96844.53;;;14.68
19102;BMP280;9683;49.028;12.064;2023-04-29T03:41:14;96846.66;;;14.66
19102;BMP280;9683;49.028;12.064;2023-04-29T03:43:41;96847.22;;;14.68
19102;BMP280;9683;49.028;12.064;2023-04-29T03:46:09;96846.94;;;14.69
19102;BMP280;9683;49.028;12.064;2023-04-29T03:48:36;96837.31;;;14.68
19102;BMP280;9683;49.028;12.064;2023-04-29T03:51:03;96838.66;;;14.71
19102;BMP280;9683;49.028;12.064;2023-04-29T03:53:30;96842.13;;;14.72
19102;BMP280;9683;49.028;12.064;2023-04-29T03:55:58;96852.06;;;14.76
19102;BMP280;9683;49.028;12.064;2023-04-29T03:58:25;96851.50;;;14.74
19102;BMP280;9683;49.028;12.064;2023-04-29T04:00:52;96851.78;;;14.73
19102;BMP280;9683;49.028;12.064;2023-04-29T04:03:19;96855.25;;;14.73
19102;BMP280;9683;49.028;12.064;2023-04-29T04:05:47;96857.94;;;14.73
19102;BMP280;9683;49.028;12.064;2023-04-29T04:08:13;96854.47;;;14.73
19102;BMP280;9683;49.028;12.064;2023-04-29T04:10:40;96844.53;;;14.73
19102;BMP280;9683;49.028;12.064;2023-04-29T04:13:08;96859.31;;;14.76
19102;BMP280;9683;49.028;12.064;2023-04-29T04:15:35;96857.69;;;14.75
19102;BMP280;9683;49.028;12.064;2023-04-29T04:18:02;96864.38;;;14.72
19102;BMP280;9683;49.028;12.064;2023-04-29T04:20:28;96861.72;;;14.77
19102;BMP280;9683;49.028;12.064;2023-04-29T04:22:55;96863.59;;;14.82
19102;BMP280;9683;49.028;12.064;2023-04-29T04:25:22;96860.94;;;14.82
19102;BMP280;9683;49.028;12.064;2023-04-29T04:27:49;96861.72;;;14.77
19102;BMP280;9683;49.028;12.064;2023-04-29T04:30:17;96862.53;;;14.83
19102;BMP280;9683;49.028;12.064;2023-04-29T04:32:44;96856.38;;;14.77
19102;BMP280;9683;49.028;12.064;2023-04-29T04:35:11;96854.75;;;14.76
19102;BMP280;9683;49.028;12.064;2023-04-29T04:37:37;96865.69;;;14.69
19102;BMP280;9683;49.028;12.064;2023-04-29T04:40:05;96871.06;;;14.75
19102;BMP280;9683;49.028;12.064;2023-04-29T04:42:32;96869.72;;;14.72
19102;BMP280;9683;49.028;12.064;2023-04-29T04:44:59;96879.06;;;14.69
19102;BMP280;9683;49.028;12.064;2023-04-29T04:47:27;96878.00;;;14.71
19102;BMP280;9683;49.028;12.064;2023-04-29T04:49:54;96871.03;;;14.69
19102;BMP280;9683;49.028;12.064;2023-04-29T04:52:20;96869.16;;;14.70
19102;BMP280;9683;49.028;12.064;2023-04-29T04:54:47;96872.91;;;14.69
19102;BMP280;9683;49.028;12.064;2023-04-29T04:57:14;96876.91;;;14.66
19102;BMP280;9683;49.028;12.064;2023-04-29T04:59:41;96872.09;;;14.63
19102;BMP280;9683;49.028;12.064;2023-04-29T05:02:08;96885.50;;;14.68
19102;BMP280;9683;49.028;12.064;2023-04-29T05:04:36;96876.44;;;14.75
19102;BMP280;9683;49.028;12.064;2023-04-29T05:07:03;96878.59;;;14.78
19102;BMP280;9683;49.028;12.064;2023-04-29T05:09:30;96889.88;;;14.80
19102;BMP280;9683;49.028;12.064;2023-04-29T05:11:57;96890.66;;;14.80
19102;BMP280;9683;49.028;12.064;2023-04-29T05:14:24;96878.34;;;14.79
19102;BMP280;9683;49.028;12.064;2023-04-29T05:16:51;96882.06;;;14.78
19102;BMP280;9683;49.028;12.064;2023-04-29T05:19:18;96888.81;;;14.81
19102;BMP280;9683;49.028;12.064;2023-04-29T05:21:46;96889.34;;;14.83
19102;BMP280;9683;49.028;12.064;2023-04-29T05:24:13;96889.63;;;14.81
19102;BMP280;9683;49.028;12.064;2023-04-29T05:26:40;96893.06;;;14.82
19102;BMP280;9683;49.028;12.064;2023-04-29T05:29:08;96898.47;;;14.87
19102;BMP280;9683;49.028;12.064;2023-04-29T05:31:35;96907.59;;;14.91
19102;BMP280;9683;49.028;12.064;2023-04-29T05:34:03;96904.91;;;14.91
19102;BMP280;9683;49.028;12.064;2023-04-29T05:36:30;96904.09;;;14.90
19102;BMP280;9683;49.028;12.064;2023-04-29T05:38:58;96906.56;;;14.97
19102;BMP280;9683;49.028;12.064;2023-04-29T05:41:24;96903.63;;;14.93
19102;BMP280;9683;49.028;12.064;2023-04-29T05:43:51;96908.44;;;14.96
19102;BMP280;9683;49.028;12.064;2023-04-29T05:46:18;96912.47;;;14.99
19102;BMP280;9683;49.028;12.064;2023-04-29T05:48:47;96919.44;;;15.00
19102;BMP280;9683;49.028;12.064;2023-04-29T05:51:13;96921.06;;;15.01
19102;BMP280;9683;49.028;12.064;2023-04-29T05:53:40;96928.88;;;15.02
19102;BMP280;9683;49.028;12.064;2023-04-29T05:56:09;96908.47;;;15.01
19102;BMP280;9683;49.028;12.064;2023-04-29T05:58:35;96927.78;;;15.03
19102;BMP280;9683;49.028;12.064;2023-04-29T06:01:02;96934.22;;;15.07
19102;BMP280;9683;49.028;12.064;2023-04-29T06:03:29;96936.91;;;15.07
19102;BMP280;9683;49.028;12.064;2023-04-29T06:05:56;96941.78;;;15.10
19102;BMP280;9683;49.028;12.064;2023-04-29T06:08:23;96938.81;;;15.12
19102;BMP280;9683;49.028;12.064;2023-04-29T06:10:51;96949.56;;;15.17
19102;BMP280;9683;49.028;12.064;2023-04-29T06:13:19;96948.78;;;15.22
19102;BMP280;9683;49.028;12.064;2023-04-29T06:15:46;96952.28;;;15.22
19102;BMP280;9683;49.028;12.064;2023-04-29T06:18:12;96944.78;;;15.24
19102;BMP280;9683;49.028;12.064;2023-04-29T06:20:39;96945.88;;;15.28
19102;BMP280;9683;49.028;12.064;2023-04-29T06:23:06;96954.22;;;15.32
19102;BMP280;9683;49.028;12.064;2023-04-29T06:25:33;96952.63;;;15.36
19102;BMP280;9683;49.028;12.064;2023-04-29T06:27:59;96950.72;;;15.36
19102;BMP280;9683;49.028;12.064;2023-04-29T06:30:27;96959.09;;;15.45
19102;BMP280;9683;49.028;12.064;2023-04-29T06:32:54;96947.31;;;15.46
19102;BMP280;9683;49.028;12.064;2023-04-29T06:35:21;96962.09;;;15.53
19102;BMP280;9683;49.028;12.064;2023-04-29T06:37:48;96965.59;;;15.54
19102;BMP280;9683;49.028;12.064;2023-04-29T06:40:15;96957.34;;;15.61
19102;BMP280;9683;49.028;12.064;2023-04-29T06:42:42;96967.00;;;15.67
19102;BMP280;9683;49.028;12.064;2023-04-29T06:45:09;96959.22;;;15.70
19102;BMP280;9683;49.028;12.064;2023-04-29T06:47:37;96970.53;;;15.77
19102;BMP280;9683;49.028;12.064;2023-04-29T06:50:05;96962.22;;;15.79
19102;BMP280;9683;49.028;12.064;2023-04-29T06:52:33;96957.13;;;15.77
19102;BMP280;9683;49.028;12.064;2023-04-29T06:55:00;96950.66;;;15.78
19102;BMP280;9683;49.028;12.064;2023-04-29T06:57:26;96960.09;;;15.91
19102;BMP280;9683;49.028;12.064;2023-04-29T06:59:53;96967.66;;;15.99
19102;BMP280;9683;49.028;12.064;2023-04-29T07:02:20;96972.22;;;16.09
19102;BMP280;9683;49.028;12.064;2023-04-29T07:04:48;96978.97;;;16.16
19102;BMP280;9683;49.028;12.064;2023-04-29T07:07:15;96972.28;;;16.19
19102;BMP280;9683;49.028;12.064;2023-04-29T07:09:42;96976.31;;;16.26
19102;BMP280;9683;49.028;12.064;2023-04-29T07:12:09;96976.56;;;16.30
19102;BMP280;9683;49.028;12.064;2023-04-29T07:14:35;96975.25;;;16.32
19102;BMP280;9683;49.028;12.064;2023-04-29T07:17:02;96980.59;;;16.37
19102;BMP280;9683;49.028;12.064;2023-04-29T07:19:30;96980.63;;;16.42
19102;BMP280;9683;49.028;12.064;2023-04-29T07:21:58;96971.25;;;16.45
19102;BMP280;9683;49.028;12.064;2023-04-29T07:24:24;96980.91;;;16.51
19102;BMP280;9683;49.028;12.064;2023-04-29T07:26:51;96980.09;;;16.56
19102;BMP280;9683;49.028;12.064;2023-04-29T07:29:18;96991.16;;;16.59
19102;BMP280;9683;49.028;12.064;2023-04-29T07:31:44;96985.25;;;16.62
19102;BMP280;9683;49.028;12.064;2023-04-29T07:34:11;96981.22;;;16.60
19102;BMP280;9683;49.028;12.064;2023-04-29T07:36:38;96995.41;;;16.55
19102;BMP280;9683;49.028;12.064;2023-04-29T07:39:06;96992.19;;;16.53
19102;BMP280;9683;49.028;12.064;2023-04-29T07:41:33;96989.78;;;16.51
19102;BMP280;9683;49.028;12.064;2023-04-29T07:44:00;96987.34;;;16.50
19102;BMP280;9683;49.028;12.064;2023-04-29T07:46:26;96992.72;;;16.50
19102;BMP280;9683;49.028;12.064;2023-04-29T07:48:53;96992.44;;;16.46
19102;BMP280;9683;49.028;12.064;2023-04-29T07:51:20;96982.25;;;16.43
19102;BMP280;9683;49.028;12.064;2023-04-29T07:53:47;96988.16;;;16.56
19102;BMP280;9683;49.028;12.064;2023-04-29T07:56:15;96980.41;;;16.59
19102;BMP280;9683;49.028;12.064;2023-04-29T07:58:42;96995.19;;;16.67
19102;BMP280;9683;49.028;12.064;2023-04-29T08:01:09;96991.97;;;16.75
19102;BMP280;9683;49.028;12.064;2023-04-29T08:03:36;96995.19;;;16.77
19102;BMP280;9683;49.028;12.064;2023-04-29T08:06:04;96992.25;;;16.73
19102;BMP280;9683;49.028;12.064;2023-04-29T08:08:31;96983.09;;;16.69
19102;BMP280;9683;49.028;12.064;2023-04-29T08:10:58;96984.72;;;16.70
19102;BMP280;9683;49.028;12.064;2023-04-29T08:13:27;97004.88;;;16.83
19102;BMP280;9683;49.028;12.064;2023-04-29T08:15:53;96994.13;;;16.73
19102;BMP280;9683;49.028;12.064;2023-04-29T08:18:20;96998.16;;;16.70
19102;BMP280;9683;49.028;12.064;2023-04-29T08:20:47;97003.25;;;16.72
19102;BMP280;9683;49.028;12.064;2023-04-29T08:23:15;96999.75;;;16.71
19102;BMP280;9683;49.028;12.064;2023-04-29T08:25:43;97010.78;;;16.75
19102;BMP280;9683;49.028;12.064;2023-04-29T08:28:10;97000.03;;;16.75
19102;BMP280;9683;49.028;12.064;2023-04-29T08:30:39;96996.00;;;16.77
19102;BMP280;9683;49.028;12.064;2023-04-29T08:33:06;97011.34;;;16.87
19102;BMP280;9683;49.028;12.064;2023-04-29T08:35:33;97011.31;;;16.92
19102;BMP280;9683;49.028;12.064;2023-04-29T08:38:03;96998.16;;;16.90
19102;BMP280;9683;49.028;12.064;2023-04-29T08:40:33;97005.41;;;17.00
19102;BMP280;9683;49.028;12.064;2023-04-29T08:43:02;96993.03;;;16.99
19102;BMP280;9683;49.028;12.064;2023-04-29T08:45:29;97007.00;;;17.06
19102;BMP280;9683;49.028;12.064;2023-04-29T08:47:59;97005.66;;;17.14
19102;BMP280;9683;49.028;12.064;2023-04-29T08:50:27;96992.75;;;17.11
19102;BMP280;9683;49.028;12.064;2023-04-29T08:52:54;97004.59;;;17.25
19102;BMP280;9683;49.028;12.064;2023-04-29T08:55:21;97005.91;;;17.32
19102;BMP280;9683;49.028;12.064;2023-04-29T08:57:48;97005.91;;;17.37
19102;BMP280;9683;49.028;12.064;2023-04-29T09:00:16;97005.59;;;17.44
19102;BMP280;9683;49.028;12.064;2023-04-29T09:02:46;96997.53;;;17.44
19102;BMP280;9683;49.028;12.064;2023-04-29T09:05:16;97004.25;;;17.47
19102;BMP280;9683;49.028;12.064;2023-04-29T09:07:43;97006.69;;;17.43
19102;BMP280;9683;49.028;12.064;2023-04-29T09:10:11;96997.84;;;17.37
19102;BMP280;9683;49.028;12.064;2023-04-29T09:12:39;97014.22;;;17.46
19102;BMP280;9683;49.028;12.064;2023-04-29T09:15:07;97002.09;;;17.49
19102;BMP280;9683;49.028;12.064;2023-04-29T09:17:38;97006.13;;;17.51
19102;BMP280;9683;49.028;12.064;2023-04-29T09:20:25;97005.06;;;17.52
19102;BMP280;9683;49.028;12.064;2023-04-29T09:22:52;96998.84;;;17.52
19102;BMP280;9683;49.028;12.064;2023-04-29T09:25:20;97012.88;;;17.54
19102;BMP280;9683;49.028;12.064;2023-04-29T09:27:47;96998.88;;;17.47
19102;BMP280;9683;49.028;12.064;2023-04-29T09:30:14;97006.94;;;17.57
19102;BMP280;9683;49.028;12.064;2023-04-29T09:32:41;96995.94;;;17.58
19102;BMP280;9683;49.028;12.064;2023-04-29T09:35:23;97003.19;;;17.63
19102;BMP280;9683;49.028;12.064;2023-04-29T09:37:50;97005.03;;;17.57
19102;BMP280;9683;49.028;12.064;2023-04-29T09:40:28;97016.88;;;17.56
19102;BMP280;9683;49.028;12.064;2023-04-29T09:42:56;97000.22;;;17.44
19102;BMP280;9683;49.028;12.064;2023-04-29T09:45:36;97006.94;;;17.57
19102;BMP280;9683;49.028;12.064;2023-04-29T09:48:04;97013.13;;;17.57
19102;BMP280;9683;49.028;12.064;2023-04-29T09:50:33;97012.88;;;17.59
19102;BMP280;9683;49.028;12.064;2023-04-29T09:53:02;97004.53;;;17.60
19102;BMP280;9683;49.028;12.064;2023-04-29T09:55:29;97013.91;;;17.73
19102;BMP280;9683;49.028;12.064;2023-04-29T09:57:56;97004.50;;;17.70
19102;BMP280;9683;49.028;12.064;2023-04-29T10:00:27;97003.69;;;17.75
19102;BMP280;9683;49.028;12.064;2023-04-29T10:02:57;97026.25;;;17.84
19102;BMP280;9683;49.028;12.064;2023-04-29T10:05:27;97018.47;;;17.77
19102;BMP280;9683;49.028;12.064;2023-04-29T10:07:55;97030.34;;;17.71
19102;BMP280;9683;49.028;12.064;2023-04-29T10:10:23;97017.44;;;17.63
19102;BMP280;9683;49.028;12.064;2023-04-29T10:12:52;97034.38;;;17.69
19102;BMP280;9683;49.028;12.064;2023-04-29T10:15:24;97019.34;;;17.63
19102;BMP280;9683;49.028;12.064;2023-04-29T10:17:58;97033.06;;;17.46
19102;BMP280;9683;49.028;12.064;2023-04-29T10:20:26;97042.50;;;17.33
19102;BMP280;9683;49.028;12.064;2023-04-29T10:22:55;97040.06;;;17.22
19102;BMP280;9683;49.028;12.064;2023-04-29T10:25:24;97037.66;;;17.10
19102;BMP280;9683;49.028;12.064;2023-04-29T10:27:54;97034.16;;;17.10
19102;BMP280;9683;49.028;12.064;2023-04-29T10:30:21;97043.31;;;16.99
19102;BMP280;9683;49.028;12.064;2023-04-29T10:32:49;97045.19;;;16.98
19102;BMP280;9683;49.028;12.064;2023-04-29T10:35:17;97047.06;;;16.92
19102;BMP280;9683;49.028;12.064;2023-04-29T10:37:46;97040.88;;;16.77
19102;BMP280;9683;49.028;12.064;2023-04-29T10:40:16;97048.13;;;16.71
19102;BMP280;9683;49.028;12.064;2023-04-29T10:42:47;97052.41;;;16.67
19102;BMP280;9683;49.028;12.064;2023-04-29T10:45:24;97052.38;;;16.52
19102;BMP280;9683;49.028;12.064;2023-04-29T10:48:12;97052.16;;;16.64
19102;BMP280;9683;49.028;12.064;2023-04-29T10:53:21;97051.91;;;16.70
19102;BMP280;9683;49.028;12.064;2023-04-29T10:55:52;97040.06;;;16.76
19102;BMP280;9683;49.028;12.064;2023-04-29T10:58:42;97036.84;;;16.79
19102;BMP280;9683;49.028;12.064;2023-04-29T11:01:11;97040.91;;;16.82
19102;BMP280;9683;49.028;12.064;2023-04-29T11:03:49;97037.94;;;16.88
19102;BMP280;9683;49.028;12.064;2023-04-29T11:06:19;97028.00;;;16.79
19102;BMP280;9683;49.028;12.064;2023-04-29T11:08:46;97034.69;;;16.96
19102;BMP280;9683;49.028;12.064;2023-04-29T11:11:14;97000.31;;;16.99
19102;BMP280;9683;49.028;12.064;2023-04-29T11:13:45;97015.06;;;17.31
19102;BMP280;9683;49.028;12.064;2023-04-29T11:16:12;97027.44;;;17.37
19102;BMP280;9683;49.028;12.064;2023-04-29T11:19:03;97029.81;;;17.49
19102;BMP280;9683;49.028;12.064;2023-04-29T11:21:32;97029.28;;;17.52
19102;BMP280;9683;49.028;12.064;2023-04-29T11:24:00;97027.69;;;17.36
19102;BMP280;9683;49.028;12.064;2023-04-29T11:26:28;97043.03;;;17.30
19102;BMP280;9683;49.028;12.064;2023-04-29T11:28:55;97034.69;;;17.22
19102;BMP280;9683;49.028;12.064;2023-04-29T11:31:25;97033.63;;;17.23
19102;BMP280;9683;49.028;12.064;2023-04-29T11:33:54;97045.75;;;17.20
19102;BMP280;9683;49.028;12.064;2023-04-29T11:36:21;97039.03;;;17.13
19102;BMP280;9683;49.028;12.064;2023-04-29T11:38:48;97024.25;;;17.00
19102;BMP280;9683;49.028;12.064;2023-04-29T11:41:14;97041.16;;;17.01
19102;BMP280;9683;49.028;12.064;2023-04-29T11:43:45;97040.09;;;17.12
19102;BMP280;9683;49.028;12.064;2023-04-29T11:46:12;97036.31;;;17.18
19102;BMP280;9683;49.028;12.064;2023-04-29T11:48:45;97047.59;;;17.30
19102;BMP280;9683;49.028;12.064;2023-04-29T11:51:13;97048.66;;;17.34
19102;BMP280;9683;49.028;12.064;2023-04-29T11:53:41;97049.75;;;17.33
19102;BMP280;9683;49.028;12.064;2023-04-29T11:56:08;97048.94;;;17.32
19102;BMP280;9683;49.028;12.064;2023-04-29T11:58:36;97053.25;;;17.28
19102;BMP280;9683;49.028;12.064;2023-04-29T12:01:04;97054.34;;;17.32
19102;BMP280;9683;49.028;12.064;2023-04-29T12:03:31;97062.16;;;17.29
19102;BMP280;9683;49.028;12.064;2023-04-29T12:06:01;97059.72;;;17.22
19102;BMP280;9683;49.028;12.064;2023-04-29T12:08:28;97072.34;;;17.22
19102;BMP280;9683;49.028;12.064;2023-04-29T12:10:58;97056.75;;;17.19
19102;BMP280;9683;49.028;12.064;2023-04-29T12:13:27;97059.72;;;17.12
19102;BMP280;9683;49.028;12.064;2023-04-29T12:15:55;97075.31;;;17.10
19102;BMP280;9683;49.028;12.064;2023-04-29T12:18:23;97056.50;;;16.95
19102;BMP280;9683;49.028;12.064;2023-04-29T12:20:52;97081.22;;;16.92
19102;BMP280;9683;49.028;12.064;2023-04-29T12:23:21;97074.50;;;16.94
19102;BMP280;9683;49.028;12.064;2023-04-29T12:25:49;97074.75;;;16.88
19102;BMP280;9683;49.028;12.064;2023-04-29T12:28:18;97084.41;;;16.69
19102;BMP280;9683;49.028;12.064;2023-04-29T12:30:45;97076.34;;;16.64
19102;BMP280;9683;49.028;12.064;2023-04-29T12:33:15;97077.97;;;16.65
19102;BMP280;9683;49.028;12.064;2023-04-29T12:35:45;97073.66;;;16.69
19102;BMP280;9683;49.028;12.064;2023-04-29T12:38:15;97055.66;;;16.64
19102;BMP280;9683;49.028;12.064;2023-04-29T12:40:43;97068.03;;;16.80
19102;BMP280;9683;49.028;12.064;2023-04-29T12:43:10;97061.03;;;16.79
19102;BMP280;9683;49.028;12.064;2023-04-29T12:45:38;97079.88;;;16.89
19102;BMP280;9683;49.028;12.064;2023-04-29T12:48:05;97078.78;;;16.85
19102;BMP280;9683;49.028;12.064;2023-04-29T12:50:33;97053.78;;;16.85
19102;BMP280;9683;49.028;12.064;2023-04-29T12:53:02;97076.09;;;17.01
19102;BMP280;9683;49.028;12.064;2023-04-29T12:55:32;97064.56;;;17.00
19102;BMP280;9683;49.028;12.064;2023-04-29T12:57:59;97068.88;;;17.06
19102;BMP280;9683;49.028;12.064;2023-04-29T13:00:26;97090.63;;;17.10
19102;BMP280;9683;49.028;12.064;2023-04-29T13:02:53;97079.38;;;17.08
19102;BMP280;9683;49.028;12.064;2023-04-29T13:05:20;97062.97;;;17.04
19102;BMP280;9683;49.028;12.064;2023-04-29T13:07:47;97078.53;;;17.02
19102;BMP280;9683;49.028;12.064;2023-04-29T13:10:15;97064.56;;;17.05
19102;BMP280;9683;49.028;12.064;2023-04-29T13:12:42;97071.03;;;17.04
19102;BMP280;9683;49.028;12.064;2023-04-29T13:15:09;97079.38;;;17.08
19102;BMP280;9683;49.028;12.064;2023-04-29T13:17:36;97071.00;;;17.09
19102;BMP280;9683;49.028;12.064;2023-04-29T13:20:04;97065.63;;;17.14
19102;BMP280;9683;49.028;12.064;2023-04-29T13:22:31;97069.94;;;17.05
19102;BMP280;9683;49.028;12.064;2023-04-29T13:24:58;97065.34;;;17.06
19102;BMP280;9683;49.028;12.064;2023-04-29T13:27:26;97082.06;;;17.08
19102;BMP280;9683;49.028;12.064;2023-04-29T13:29:53;97066.97;;;17.02
19102;BMP280;9683;49.028;12.064;2023-04-29T13:32:20;97070.47;;;17.07
19102;BMP280;9683;49.028;12.064;2023-04-29T13:34:48;97069.69;;;17.12
19102;BMP280;9683;49.028;12.064;2023-04-29T13:37:15;97056.25;;;17.17
19102;BMP280;9683;49.028;12.064;2023-04-29T13:39:42;97068.34;;;17.24
19102;BMP280;9683;49.028;12.064;2023-04-29T13:42:09;97049.50;;;17.29
19102;BMP280;9683;49.028;12.064;2023-04-29T13:44:37;97061.84;;;17.40
19102;BMP280;9683;49.028;12.064;2023-04-29T13:47:09;97064.28;;;17.42
19102;BMP280;9683;49.028;12.064;2023-04-29T13:49:37;97063.47;;;17.41
19102;BMP280;9683;49.028;12.064;2023-04-29T13:52:03;97070.47;;;17.37
19102;BMP280;9683;49.028;12.064;2023-04-29T13:54:30;97050.53;;;17.38
19102;BMP280;9683;49.028;12.064;2023-04-29T13:56:57;97075.31;;;17.40
19102;BMP280;9683;49.028;12.064;2023-04-29T13:59:24;97054.34;;;17.37
19102;BMP280;9683;49.028;12.064;2023-04-29T14:01:52;97050.28;;;17.40
19102;BMP280;9683;49.028;12.064;2023-04-29T14:04:18;97080.69;;;17.40
19102;BMP280;9683;49.028;12.064;2023-04-29T14:06:45;97052.69;;;17.47
19102;BMP280;9683;49.028;12.064;2023-04-29T14:09:12;97054.59;;;17.36
19102;BMP280;9683;49.028;12.064;2023-04-29T14:11:38;97058.91;;;17.42
19102;BMP280;9683;49.028;12.064;2023-04-29T14:14:05;97062.38;;;17.48
19102;BMP280;9683;49.028;12.064;2023-04-29T14:16:32;97061.84;;;17.61